Time;durP1;ratioP1;P1;durP2;ratioP2;P2;SDS_P1;SDS_P2;PMS_P1;PMS_P2;Temp;Humidity;BMP_temperature;BMP_pressure;BME280_temperature;BME280_humidity;BME280_pressure;Samples;Min_cycle;Max_cycle;Signal;HPM_P1;HPM_P2
2022/12/13 00:02:26;;;;;;;;;;;23.00;78.80;;;;;;5055154;28;19912;-64
2022/12/13 00:04:52;;;;;;;;;;;22.90;81.20;;;;;;5045432;28;19959;-61
2022/12/13 00:07:19;;;;;;;;;;;23.10;78.80;;;;;;5037293;28;19939;-62
2022/12/13 00:09:46;;;;;;;;;;;23.10;78.50;;;;;;5056286;28;19908;-63
2022/12/13 00:12:12;;;;;;;;;;;23.30;79.40;;;;;;5055263;28;19970;-63
2022/12/13 00:14:39;;;;;;;;;;;23.20;78.00;;;;;;5056126;28;19967;-63
2022/12/13 00:17:06;;;;;;;;;;;23.20;77.70;;;;;;5054837;28;19917;-62
2022/12/13 00:19:32;;;;;;;;;;;23.30;79.30;;;;;;5056173;28;20426;-63
2022/12/13 00:21:59;;;;;;;;;;;23.50;77.10;;;;;;5055137;28;19923;-62
2022/12/13 00:24:26;;;;;;;;;;;23.60;77.80;;;;;;5056331;28;19909;-64
2022/12/13 00:26:54;;;;;;;;;;;23.40;79.40;;;;;;5054979;28;19919;-62
2022/12/13 00:29:21;;;;;;;;;;;23.30;79.00;;;;;;5055873;28;19908;-61
2022/12/13 00:31:47;;;;;;;;;;;23.10;80.00;;;;;;5054863;28;19999;-62
2022/12/13 00:34:14;;;;;;;;;;;23.10;79.80;;;;;;5055852;28;19909;-62
2022/12/13 00:36:41;;;;;;;;;;;23.20;80.20;;;;;;5054073;28;19963;-61
2022/12/13 00:39:11;;;;;;;;;;;23.10;80.40;;;;;;5055151;28;20364;-61
2022/12/13 00:41:39;;;;;;;;;;;23.30;80.00;;;;;;5055790;28;19908;-61
2022/12/13 00:44:05;;;;;;;;;;;23.40;79.30;;;;;;5055390;28;19971;-61
2022/12/13 00:46:32;;;;;;;;;;;23.70;78.60;;;;;;5035621;28;19955;-63
2022/12/13 00:49:00;;;;;;;;;;;23.70;79.70;;;;;;5049899;28;19917;-62
2022/12/13 00:51:27;;;;;;;;;;;24.10;78.50;;;;;;5054737;28;19909;-62
2022/12/13 00:53:55;;;;;;;;;;;25.00;77.90;;;;;;5054505;28;19913;-62
2022/12/13 00:56:24;;;;;;;;;;;25.60;77.90;;;;;;5055544;28;19916;-62
2022/12/13 00:58:51;;;;;;;;;;;26.20;76.20;;;;;;5054006;28;20367;-63
2022/12/13 01:01:18;;;;;;;;;;;26.80;75.00;;;;;;5055241;28;19909;-62
2022/12/13 01:03:46;;;;;;;;;;;27.30;74.30;;;;;;5054380;28;19912;-62
2022/12/13 01:06:14;;;;;;;;;;;27.70;72.80;;;;;;5055107;28;19909;-63
2022/12/13 01:08:41;;;;;;;;;;;27.70;71.10;;;;;;5053321;28;19913;-62
2022/12/13 01:11:08;;;;;;;;;;;27.90;72.20;;;;;;5054935;28;19954;-62
2022/12/13 01:13:35;;;;;;;;;;;28.30;71.00;;;;;;5053937;28;19920;-62
2022/12/13 01:16:03;;;;;;;;;;;28.30;70.80;;;;;;5054881;28;19915;-63
2022/12/13 01:18:30;;;;;;;;;;;28.70;69.30;;;;;;5053776;28;19956;-62
2022/12/13 01:20:58;;;;;;;;;;;28.60;71.20;;;;;;5054875;28;19909;-63
2022/12/13 01:23:25;;;;;;;;;;;28.80;71.20;;;;;;5053827;28;19967;-63
2022/12/13 01:25:52;;;;;;;;;;;28.70;71.70;;;;;;5054115;28;19974;-62
2022/12/13 01:28:19;;;;;;;;;;;28.70;69.70;;;;;;5053565;28;19916;-63
2022/12/13 01:30:53;;;;;;;;;;;28.60;70.30;;;;;;5054619;28;19909;-62
2022/12/13 01:33:19;;;;;;;;;;;28.40;69.40;;;;;;5053919;28;19916;-62
2022/12/13 01:35:46;;;;;;;;;;;28.20;69.60;;;;;;5054764;28;20326;-62
2022/12/13 01:38:12;;;;;;;;;;;28.20;70.20;;;;;;5052433;28;19928;-61
2022/12/13 01:40:44;;;;;;;;;;;28.20;69.40;;;;;;5054591;28;20008;-65
2022/12/13 01:43:12;;;;;;;;;;;28.50;69.50;;;;;;5053690;28;20422;-62
2022/12/13 01:45:38;;;;;;;;;;;28.40;68.20;;;;;;5054505;28;19931;-62
2022/12/13 01:48:07;;;;;;;;;;;28.10;69.50;;;;;;5053505;28;19912;-62
2022/12/13 01:50:36;;;;;;;;;;;27.70;69.50;;;;;;5054334;28;20252;-63
2022/12/13 01:53:06;;;;;;;;;;;27.30;71.70;;;;;;5052862;28;19913;-61
2022/12/13 01:55:34;;;;;;;;;;;26.90;70.20;;;;;;5053589;28;19919;-62
2022/12/13 01:58:02;;;;;;;;;;;26.70;69.80;;;;;;5054059;28;19921;-62
2022/12/13 02:00:29;;;;;;;;;;;26.50;69.60;;;;;;5053157;28;19923;-62
2022/12/13 02:02:57;;;;;;;;;;;26.40;70.20;;;;;;5053224;28;19909;-63
2022/12/13 02:05:27;;;;;;;;;;;25.90;69.90;;;;;;5053206;28;19913;-61
2022/12/13 02:07:55;;;;;;;;;;;25.80;74.30;;;;;;5051800;28;19913;-62
2022/12/13 02:10:21;;;;;;;;;;;25.70;75.60;;;;;;5053889;28;19974;-63
2022/12/13 02:12:48;;;;;;;;;;;25.30;77.50;;;;;;5052760;28;19917;-62
2022/12/13 02:15:16;;;;;;;;;;;25.10;77.20;;;;;;5053974;28;19909;-63
2022/12/13 02:17:49;;;;;;;;;;;25.30;78.90;;;;;;5052788;28;19932;-62
2022/12/13 02:20:16;;;;;;;;;;;25.30;77.00;;;;;;5053981;28;20314;-62
2022/12/13 02:22:52;;;;;;;;;;;25.30;76.80;;;;;;5052741;28;19920;-62
2022/12/13 02:25:18;;;;;;;;;;;25.00;77.90;;;;;;5052816;28;20007;-62
2022/12/13 02:27:51;;;;;;;;;;;25.00;76.80;;;;;;5053662;28;19979;-62
2022/12/13 02:30:21;;;;;;;;;;;25.20;75.40;;;;;;5052861;28;20360;-63
2022/12/13 02:32:56;;;;;;;;;;;25.00;75.90;;;;;;5052468;28;19913;-63
2022/12/13 02:35:29;;;;;;;;;;;24.80;76.60;;;;;;5053629;28;20451;-62
2022/12/13 02:37:56;;;;;;;;;;;24.90;78.20;;;;;;5052345;28;19921;-62
2022/12/13 02:40:31;;;;;;;;;;;24.70;75.40;;;;;;5053530;28;20286;-62
2022/12/13 02:43:06;;;;;;;;;;;24.60;77.90;;;;;;5053010;28;20306;-63
2022/12/13 02:45:47;;;;;;;;;;;25.00;76.30;;;;;;5052429;28;19967;-62
2022/12/13 02:48:16;;;;;;;;;;;25.30;76.80;;;;;;5053355;28;19909;-63
2022/12/13 02:50:44;;;;;;;;;;;25.10;75.30;;;;;;5052826;28;19963;-63
2022/12/13 02:53:12;;;;;;;;;;;24.90;77.40;;;;;;5053309;28;19909;-62
2022/12/13 02:55:39;;;;;;;;;;;24.70;77.00;;;;;;5052301;28;20362;-63
2022/12/13 02:58:06;;;;;;;;;;;24.70;78.70;;;;;;5053236;28;19932;-61
2022/12/13 03:00:51;;;;;;;;;;;24.60;78.20;;;;;;5052500;28;19928;-62
2022/12/13 03:03:21;;;;;;;;;;;24.60;77.00;;;;;;5051980;28;20253;-62
2022/12/13 03:08:35;;;;;;;;;;;24.50;75.90;;;;;;5053373;28;20535;-62
2022/12/13 03:11:04;;;;;;;;;;;24.40;74.80;;;;;;5052152;28;20355;-61
2022/12/13 03:13:51;;;;;;;;;;;24.30;75.70;;;;;;5052256;28;19924;-62
2022/12/13 03:16:36;;;;;;;;;;;24.30;77.00;;;;;;5046478;28;19915;-62
2022/12/13 03:19:07;;;;;;;;;;;24.40;81.70;;;;;;5056075;28;19921;-62
2022/12/13 03:21:38;;;;;;;;;;;24.30;82.80;;;;;;5057051;28;20398;-61
2022/12/13 03:24:05;;;;;;;;;;;24.30;84.20;;;;;;5056491;28;19912;-62
2022/12/13 03:26:32;;;;;;;;;;;24.30;81.50;;;;;;5056139;28;19963;-62
2022/12/13 03:28:59;;;;;;;;;;;24.40;82.90;;;;;;5056004;28;19920;-62
2022/12/13 03:31:25;;;;;;;;;;;24.20;80.30;;;;;;5057145;28;20003;-61
2022/12/13 03:33:52;;;;;;;;;;;24.10;81.60;;;;;;5056295;28;19966;-62
2022/12/13 03:36:19;;;;;;;;;;;24.10;80.30;;;;;;5055915;28;19917;-62
2022/12/13 03:38:47;;;;;;;;;;;24.10;81.20;;;;;;5056524;28;19956;-64
2022/12/13 03:41:16;;;;;;;;;;;24.00;82.50;;;;;;5055216;28;19919;-61
2022/12/13 03:43:43;;;;;;;;;;;23.80;85.10;;;;;;5056718;28;19909;-62
2022/12/13 03:46:10;;;;;;;;;;;23.70;85.70;;;;;;5055899;28;19913;-62
2022/12/13 03:48:36;;;;;;;;;;;23.70;85.90;;;;;;5056523;28;19909;-62
2022/12/13 03:51:04;;;;;;;;;;;23.70;87.30;;;;;;5056348;28;19909;-62
2022/12/13 03:53:30;;;;;;;;;;;23.60;87.00;;;;;;5054420;28;19913;-61
2022/12/13 03:55:57;;;;;;;;;;;23.40;86.20;;;;;;5056580;28;19909;-62
2022/12/13 03:58:24;;;;;;;;;;;23.40;87.90;;;;;;5055553;28;19925;-62
2022/12/13 04:00:50;;;;;;;;;;;23.50;86.10;;;;;;5056124;28;19996;-62
2022/12/13 04:03:17;;;;;;;;;;;23.40;87.00;;;;;;5055494;28;19913;-62
2022/12/13 04:05:44;;;;;;;;;;;23.40;86.90;;;;;;5055217;28;20279;-62
2022/12/13 04:08:10;;;;;;;;;;;23.40;86.60;;;;;;5055338;28;19952;-61
2022/12/13 04:10:37;;;;;;;;;;;23.40;87.60;;;;;;5056244;28;19916;-62
2022/12/13 04:15:48;;;;;;;;;;;23.20;86.60;;;;;;5056492;28;19962;-62
2022/12/13 04:18:16;;;;;;;;;;;23.20;85.70;;;;;;5055200;28;19921;-62
2022/12/13 04:20:43;;;;;;;;;;;23.20;86.70;;;;;;5056017;28;19909;-62
2022/12/13 04:23:10;;;;;;;;;;;23.40;85.70;;;;;;5054310;28;19912;-62
2022/12/13 04:25:38;;;;;;;;;;;23.40;86.50;;;;;;5054884;28;19909;-64
2022/12/13 04:28:05;;;;;;;;;;;23.40;88.30;;;;;;5054918;28;20363;-65
2022/12/13 04:30:32;;;;;;;;;;;23.50;87.20;;;;;;5055929;28;19962;-62
2022/12/13 04:32:59;;;;;;;;;;;23.50;86.70;;;;;;5054712;28;19920;-62
2022/12/13 04:35:25;;;;;;;;;;;23.40;86.30;;;;;;5055514;28;19919;-63
2022/12/13 04:37:52;;;;;;;;;;;23.40;87.30;;;;;;5054589;28;20022;-62
2022/12/13 04:40:19;;;;;;;;;;;23.50;87.60;;;;;;5055768;28;19968;-63
2022/12/13 04:42:45;;;;;;;;;;;23.50;88.10;;;;;;5055061;28;20375;-63
2022/12/13 04:45:14;;;;;;;;;;;23.40;87.70;;;;;;5056185;28;19963;-63
2022/12/13 04:47:41;;;;;;;;;;;23.30;88.40;;;;;;5054972;28;20004;-63
2022/12/13 04:50:08;;;;;;;;;;;23.10;87.80;;;;;;5055607;28;19976;-63
2022/12/13 04:52:36;;;;;;;;;;;23.10;86.60;;;;;;5050444;28;20332;-69
2022/12/13 04:55:03;;;;;;;;;;;23.10;87.50;;;;;;5053654;28;19996;-69
2022/12/13 04:57:30;;;;;;;;;;;23.20;88.80;;;;;;5055248;28;19927;-69
2022/12/13 04:59:57;;;;;;;;;;;23.20;88.40;;;;;;5054509;28;19995;-68
2022/12/13 05:02:24;;;;;;;;;;;23.30;89.90;;;;;;5054371;28;19908;-68
2022/12/13 05:04:51;;;;;;;;;;;23.20;89.80;;;;;;5054058;28;20005;-68
2022/12/13 05:07:18;;;;;;;;;;;23.10;90.10;;;;;;5055275;28;19909;-65
2022/12/13 05:09:44;;;;;;;;;;;23.10;90.70;;;;;;5054258;28;19913;-63
2022/12/13 05:12:11;;;;;;;;;;;23.20;91.00;;;;;;5040377;28;20344;-63
2022/12/13 05:14:38;;;;;;;;;;;23.30;91.20;;;;;;5051778;28;19968;-64
2022/12/13 05:17:04;;;;;;;;;;;23.30;90.80;;;;;;5054886;28;19916;-64
2022/12/13 05:19:31;;;;;;;;;;;23.20;91.00;;;;;;5053414;28;19913;-63
2022/12/13 05:21:59;;;;;;;;;;;23.10;91.20;;;;;;5054445;28;19962;-62
2022/12/13 05:24:25;;;;;;;;;;;23.10;91.10;;;;;;5054981;28;19909;-63
2022/12/13 05:26:52;;;;;;;;;;;23.00;90.60;;;;;;5054482;28;19963;-63
2022/12/13 05:29:19;;;;;;;;;;;23.00;91.10;;;;;;5053929;28;20434;-64
2022/12/13 05:31:45;;;;;;;;;;;23.00;91.60;;;;;;5055179;28;19952;-64
2022/12/13 05:34:13;;;;;;;;;;;23.00;91.80;;;;;;5054081;28;19913;-62
2022/12/13 05:36:40;;;;;;;;;;;22.90;92.10;;;;;;5035178;28;19917;-62
2022/12/13 05:39:07;;;;;;;;;;;23.00;92.00;;;;;;5034853;28;19917;-63
2022/12/13 05:41:35;;;;;;;;;;;23.00;91.90;;;;;;5054278;28;19959;-63
2022/12/13 05:44:01;;;;;;;;;;;23.00;91.90;;;;;;5054940;28;19923;-63
2022/12/13 05:46:28;;;;;;;;;;;22.90;91.70;;;;;;5054123;28;19913;-63
2022/12/13 05:48:55;;;;;;;;;;;22.90;91.20;;;;;;5054332;28;19909;-62
2022/12/13 05:51:21;;;;;;;;;;;23.00;90.30;;;;;;5049366;28;19916;-63
2022/12/13 05:53:49;;;;;;;;;;;23.00;90.20;;;;;;5051059;28;19913;-63
2022/12/13 05:56:15;;;;;;;;;;;23.00;89.70;;;;;;5044713;28;20364;-63
2022/12/13 05:58:42;;;;;;;;;;;23.10;89.80;;;;;;5045599;28;19974;-63
2022/12/13 06:01:10;;;;;;;;;;;23.00;90.00;;;;;;5044713;28;19956;-63
2022/12/13 06:03:37;;;;;;;;;;;22.90;90.00;;;;;;5044596;28;19967;-64
2022/12/13 06:06:05;;;;;;;;;;;22.90;90.10;;;;;;5045327;28;19920;-63
2022/12/13 06:08:32;;;;;;;;;;;22.80;90.60;;;;;;5044726;28;19963;-63
2022/12/13 06:11:00;;;;;;;;;;;22.70;90.90;;;;;;5044694;28;19998;-65
2022/12/13 06:13:27;;;;;;;;;;;22.70;91.10;;;;;;5044404;28;20012;-63
2022/12/13 06:15:59;;;;;;;;;;;22.70;91.70;;;;;;5044799;28;20175;-63
2022/12/13 06:18:26;;;;;;;;;;;22.60;91.90;;;;;;5044811;28;19921;-64
2022/12/13 06:21:00;;;;;;;;;;;22.60;92.40;;;;;;5044151;28;19935;-63
2022/12/13 06:23:28;;;;;;;;;;;22.60;92.90;;;;;;5045264;28;19913;-63
2022/12/13 06:25:54;;;;;;;;;;;22.60;93.10;;;;;;5042216;28;20241;-63
2022/12/13 06:28:22;;;;;;;;;;;22.60;93.20;;;;;;5043726;28;19919;-64
2022/12/13 06:30:52;;;;;;;;;;;22.50;93.60;;;;;;5044377;28;19916;-63
2022/12/13 06:33:19;;;;;;;;;;;22.60;93.60;;;;;;5044014;28;19912;-64
2022/12/13 06:35:46;;;;;;;;;;;22.50;93.80;;;;;;5044765;28;20407;-63
2022/12/13 06:38:13;;;;;;;;;;;22.60;94.10;;;;;;5043871;28;19920;-64
2022/12/13 06:40:40;;;;;;;;;;;22.50;94.20;;;;;;5043062;28;20265;-65
2022/12/13 06:43:06;;;;;;;;;;;22.40;94.60;;;;;;5043280;28;19959;-64
2022/12/13 06:45:33;;;;;;;;;;;22.30;94.80;;;;;;5043761;28;19920;-63
2022/12/13 06:48:00;;;;;;;;;;;22.30;95.10;;;;;;5025870;28;19913;-64
2022/12/13 06:50:27;;;;;;;;;;;22.40;95.10;;;;;;5024681;28;19913;-63
2022/12/13 06:52:53;;;;;;;;;;;22.40;95.20;;;;;;5045213;28;19912;-64
2022/12/13 06:55:20;;;;;;;;;;;22.30;94.90;;;;;;5044691;28;19919;-62
2022/12/13 06:57:47;;;;;;;;;;;22.20;95.30;;;;;;5031994;28;19932;-63
2022/12/13 07:00:14;;;;;;;;;;;22.20;95.60;;;;;;5043323;28;19923;-64
2022/12/13 07:02:40;;;;;;;;;;;22.20;96.10;;;;;;5044633;28;19978;-63
2022/12/13 07:05:08;;;;;;;;;;;22.20;96.00;;;;;;5043622;28;20566;-63
2022/12/13 07:07:35;;;;;;;;;;;22.20;95.90;;;;;;5044248;28;19913;-63
2022/12/13 07:10:03;;;;;;;;;;;22.20;96.00;;;;;;5043539;28;19916;-63
2022/12/13 07:12:30;;;;;;;;;;;22.10;96.00;;;;;;5043725;28;19917;-63
2022/12/13 07:14:56;;;;;;;;;;;22.10;96.30;;;;;;5044059;28;20653;-64
2022/12/13 07:17:23;;;;;;;;;;;22.00;96.10;;;;;;5043725;28;19913;-64
2022/12/13 07:19:50;;;;;;;;;;;22.00;95.90;;;;;;5044227;28;20008;-64
2022/12/13 07:22:16;;;;;;;;;;;22.00;96.20;;;;;;5042689;28;19920;-62
2022/12/13 07:24:46;;;;;;;;;;;22.00;97.00;;;;;;5024450;28;19913;-64
2022/12/13 07:27:13;;;;;;;;;;;21.90;97.10;;;;;;5025926;28;19936;-66
2022/12/13 07:29:43;;;;;;;;;;;21.90;97.70;;;;;;5044521;28;19962;-64
2022/12/13 07:32:10;;;;;;;;;;;21.90;97.50;;;;;;5043224;28;19924;-67
2022/12/13 07:34:37;;;;;;;;;;;21.90;98.10;;;;;;5044470;28;19975;-65
2022/12/13 07:37:03;;;;;;;;;;;21.80;97.70;;;;;;5042844;28;19912;-68
2022/12/13 07:39:31;;;;;;;;;;;21.70;98.00;;;;;;5043593;28;20278;-64
2022/12/13 07:41:57;;;;;;;;;;;21.60;98.10;;;;;;5043333;28;19962;-65
2022/12/13 07:44:24;;;;;;;;;;;21.60;98.90;;;;;;5036073;28;19917;-70
2022/12/13 07:46:51;;;;;;;;;;;21.60;99.00;;;;;;5024580;28;20415;-68
2022/12/13 07:49:19;;;;;;;;;;;21.60;98.70;;;;;;5029964;28;19955;-69
2022/12/13 07:51:46;;;;;;;;;;;21.60;98.80;;;;;;5044193;28;19916;-69
2022/12/13 07:54:12;;;;;;;;;;;21.60;99.10;;;;;;5043464;28;19960;-66
2022/12/13 07:56:39;;;;;;;;;;;21.50;99.30;;;;;;5043823;28;19929;-63
2022/12/13 07:59:06;;;;;;;;;;;21.40;99.90;;;;;;5042876;28;19924;-63
2022/12/13 08:01:35;;;;;;;;;;;21.40;99.90;;;;;;5046946;28;19912;-64
2022/12/13 08:04:03;;;;;;;;;;;21.30;99.90;;;;;;5047034;28;19921;-66
2022/12/13 08:06:34;;;;;;;;;;;21.30;99.90;;;;;;5046547;28;20072;-68
2022/12/13 08:09:01;;;;;;;;;;;21.30;99.90;;;;;;5047139;28;19913;-65
2022/12/13 08:11:28;;;;;;;;;;;21.20;99.90;;;;;;5054723;28;20303;-67
2022/12/13 08:13:55;;;;;;;;;;;21.20;99.90;;;;;;5055277;28;19975;-68
2022/12/13 08:16:22;;;;;;;;;;;21.10;99.90;;;;;;5056100;28;19908;-69
2022/12/13 08:18:48;;;;;;;;;;;21.10;99.90;;;;;;5054857;28;19924;-69
2022/12/13 08:21:15;;;;;;;;;;;21.00;99.90;;;;;;5055868;28;19909;-68
2022/12/13 08:23:42;;;;;;;;;;;21.00;99.90;;;;;;5055108;28;19955;-67
2022/12/13 08:26:08;;;;;;;;;;;21.00;99.90;;;;;;5055940;28;20004;-67
2022/12/13 08:28:36;;;;;;;;;;;21.00;99.90;;;;;;5054931;28;19967;-68
2022/12/13 08:31:05;;;;;;;;;;;21.00;99.90;;;;;;5055593;28;19963;-68
2022/12/13 08:33:33;;;;;;;;;;;21.00;99.90;;;;;;5054712;28;19920;-68
2022/12/13 08:36:10;;;;;;;;;;;20.90;99.90;;;;;;5055541;28;20248;-68
2022/12/13 08:38:36;;;;;;;;;;;20.90;99.90;;;;;;5054559;28;19924;-65
2022/12/13 08:41:04;;;;;;;;;;;20.90;99.90;;;;;;5054257;28;19912;-66
2022/12/13 08:43:31;;;;;;;;;;;20.90;99.90;;;;;;5055648;28;19944;-68
2022/12/13 08:45:58;;;;;;;;;;;20.90;99.90;;;;;;5054605;28;20375;-66
2022/12/13 08:48:24;;;;;;;;;;;20.80;99.90;;;;;;5055526;28;19996;-67
2022/12/13 08:50:51;;;;;;;;;;;20.80;99.90;;;;;;5054294;28;19913;-65
2022/12/13 08:53:18;;;;;;;;;;;20.80;99.90;;;;;;5054362;28;19919;-67
2022/12/13 08:55:45;;;;;;;;;;;20.80;99.90;;;;;;5055624;28;19909;-67
2022/12/13 08:58:13;;;;;;;;;;;20.80;99.90;;;;;;5054265;28;20338;-66
2022/12/13 09:00:41;;;;;;;;;;;20.80;99.90;;;;;;5055278;28;20282;-68
2022/12/13 09:03:08;;;;;;;;;;;20.80;99.90;;;;;;5054188;28;19959;-67
2022/12/13 09:05:34;;;;;;;;;;;20.70;99.90;;;;;;5054939;28;20253;-67
2022/12/13 09:08:02;;;;;;;;;;;20.70;99.90;;;;;;5054203;28;19912;-68
2022/12/13 09:10:30;;;;;;;;;;;20.60;99.90;;;;;;5055008;28;19913;-68
2022/12/13 09:13:00;;;;;;;;;;;20.60;99.90;;;;;;5053185;28;19927;-69
2022/12/13 09:15:30;;;;;;;;;;;20.50;99.90;;;;;;5054902;28;19996;-68
2022/12/13 09:17:57;;;;;;;;;;;20.60;99.90;;;;;;5053877;28;19916;-67
2022/12/13 09:20:24;;;;;;;;;;;20.60;99.90;;;;;;5052903;28;19912;-68
2022/12/13 09:22:51;;;;;;;;;;;20.50;99.90;;;;;;5051616;28;19916;-68
2022/12/13 09:25:17;;;;;;;;;;;20.50;99.90;;;;;;5052587;28;20431;-67
2022/12/13 09:27:44;;;;;;;;;;;20.50;99.90;;;;;;5040012;28;19917;-67
2022/12/13 09:30:11;;;;;;;;;;;20.50;99.90;;;;;;5032631;28;19987;-66
2022/12/13 09:32:39;;;;;;;;;;;20.40;99.90;;;;;;5042165;28;19943;-67
2022/12/13 09:35:06;;;;;;;;;;;20.50;99.90;;;;;;5052120;28;19916;-65
2022/12/13 09:37:33;;;;;;;;;;;20.40;99.90;;;;;;5051156;28;19955;-67
2022/12/13 09:40:00;;;;;;;;;;;20.40;99.90;;;;;;5052269;28;19909;-68
2022/12/13 09:42:28;;;;;;;;;;;20.40;99.90;;;;;;5039521;28;19956;-64
2022/12/13 09:45:05;;;;;;;;;;;20.40;99.90;;;;;;5032000;28;19916;-62
2022/12/13 09:47:38;;;;;;;;;;;20.40;99.90;;;;;;5050172;28;19917;-64
2022/12/13 09:50:12;;;;;;;;;;;20.40;99.90;;;;;;5052192;28;19909;-61
2022/12/13 09:52:40;;;;;;;;;;;20.30;99.90;;;;;;5051799;28;19919;-63
2022/12/13 09:55:19;;;;;;;;;;;20.40;99.90;;;;;;5052574;28;19909;-63
2022/12/13 09:57:46;;;;;;;;;;;20.40;99.90;;;;;;5051826;28;20348;-62
2022/12/13 10:00:19;;;;;;;;;;;20.30;99.90;;;;;;5052906;28;19909;-63
2022/12/13 10:02:46;;;;;;;;;;;20.40;99.90;;;;;;5051166;28;20524;-67
2022/12/13 10:05:16;;;;;;;;;;;20.30;99.90;;;;;;5053879;28;19916;-63
2022/12/13 10:07:43;;;;;;;;;;;20.40;99.90;;;;;;5053456;28;19913;-62
2022/12/13 10:10:13;;;;;;;;;;;20.30;99.90;;;;;;5054133;28;20372;-63
2022/12/13 10:12:41;;;;;;;;;;;20.30;99.90;;;;;;5051162;28;19921;-67
2022/12/13 10:15:10;;;;;;;;;;;20.30;99.90;;;;;;5051903;28;20299;-67
2022/12/13 10:17:39;;;;;;;;;;;20.30;99.90;;;;;;5051055;28;19921;-67
2022/12/13 10:20:08;;;;;;;;;;;20.30;99.90;;;;;;5051625;28;19935;-67
2022/12/13 10:22:35;;;;;;;;;;;20.30;99.90;;;;;;5046174;28;19917;-69
2022/12/13 10:25:03;;;;;;;;;;;20.30;99.90;;;;;;5043884;28;19919;-67
2022/12/13 10:27:39;;;;;;;;;;;20.20;99.90;;;;;;5044010;28;19939;-66
2022/12/13 10:30:23;;;;;;;;;;;20.20;99.90;;;;;;5043998;28;20359;-69
2022/12/13 10:32:56;;;;;;;;;;;20.20;99.90;;;;;;5044592;28;19913;-63
2022/12/13 10:35:27;;;;;;;;;;;20.20;99.90;;;;;;5043169;28;19920;-68
2022/12/13 10:37:55;;;;;;;;;;;20.20;99.90;;;;;;5044928;28;20398;-68
2022/12/13 10:40:44;;;;;;;;;;;20.20;99.90;;;;;;5043570;28;19917;-67
2022/12/13 10:43:15;;;;;;;;;;;20.30;99.90;;;;;;5043719;28;19938;-68
2022/12/13 10:45:44;;;;;;;;;;;20.20;99.90;;;;;;5044071;28;19935;-68
2022/12/13 10:48:20;;;;;;;;;;;20.20;99.90;;;;;;5043052;28;20529;-64
2022/12/13 10:51:16;;;;;;;;;;;20.10;99.90;;;;;;5043620;28;20386;-67
2022/12/13 10:53:48;;;;;;;;;;;20.10;99.90;;;;;;5027303;28;19913;-69
2022/12/13 10:56:18;;;;;;;;;;;20.10;99.90;;;;;;5044215;28;19917;-65
2022/12/13 10:58:46;;;;;;;;;;;20.10;99.90;;;;;;5043487;28;19978;-68
2022/12/13 11:01:22;;;;;;;;;;;20.10;99.90;;;;;;5044772;28;20007;-64
2022/12/13 11:04:02;;;;;;;;;;;20.10;99.90;;;;;;5043666;28;20469;-69
2022/12/13 11:06:49;;;;;;;;;;;20.00;99.90;;;;;;5043207;28;20676;-64
2022/12/13 11:09:27;;;;;;;;;;;20.10;99.90;;;;;;5044098;28;19951;-68
2022/12/13 11:11:55;;;;;;;;;;;20.10;99.90;;;;;;5043011;28;19924;-68
2022/12/13 11:14:24;;;;;;;;;;;20.10;99.90;;;;;;5044505;28;19913;-65
2022/12/13 11:16:52;;;;;;;;;;;20.10;99.90;;;;;;5043557;28;20002;-69
2022/12/13 11:19:19;;;;;;;;;;;20.10;99.90;;;;;;5043995;28;19920;-67
2022/12/13 11:21:47;;;;;;;;;;;20.10;99.90;;;;;;5043633;28;20465;-64
2022/12/13 11:24:33;;;;;;;;;;;20.10;99.90;;;;;;5043337;28;20019;-67
2022/12/13 11:27:14;;;;;;;;;;;20.10;99.90;;;;;;5043759;28;19963;-68
2022/12/13 11:29:48;;;;;;;;;;;20.10;99.90;;;;;;5044427;28;20401;-66
2022/12/13 11:32:34;;;;;;;;;;;20.10;99.90;;;;;;5043247;28;19920;-69
2022/12/13 11:35:01;;;;;;;;;;;20.10;99.90;;;;;;5043467;28;19994;-67
2022/12/13 11:37:30;;;;;;;;;;;20.10;99.90;;;;;;5047406;28;20456;-68
2022/12/13 11:39:59;;;;;;;;;;;20.10;99.90;;;;;;5048290;28;20638;-64
2022/12/13 11:42:26;;;;;;;;;;;20.10;99.90;;;;;;5047442;28;20392;-65
2022/12/13 11:45:00;;;;;;;;;;;20.20;99.90;;;;;;5047757;28;19935;-68
2022/12/13 11:47:47;;;;;;;;;;;20.20;99.90;;;;;;5047270;28;19917;-68
2022/12/13 11:50:19;;;;;;;;;;;20.20;99.90;;;;;;5047830;28;19913;-70
2022/12/13 11:52:53;;;;;;;;;;;20.10;99.90;;;;;;5046126;28;19917;-70
2022/12/13 11:55:26;;;;;;;;;;;20.10;99.90;;;;;;5047067;28;19966;-67
2022/12/13 11:57:52;;;;;;;;;;;20.20;99.90;;;;;;5047374;28;19925;-65
2022/12/13 12:00:37;;;;;;;;;;;20.20;99.90;;;;;;5047188;28;19928;-69
2022/12/13 12:03:07;;;;;;;;;;;20.20;99.90;;;;;;5047737;28;19965;-68
2022/12/13 12:05:35;;;;;;;;;;;20.20;99.90;;;;;;5047204;28;19939;-67
2022/12/13 12:08:09;;;;;;;;;;;20.20;99.90;;;;;;5047204;28;19917;-70
2022/12/13 12:10:39;;;;;;;;;;;20.10;99.90;;;;;;5047614;28;19920;-70
2022/12/13 12:13:25;;;;;;;;;;;20.10;99.90;;;;;;5046740;28;20545;-70
2022/12/13 12:16:12;;;;;;;;;;;19.90;99.90;;;;;;5047064;28;20357;-65
2022/12/13 12:18:39;;;;;;;;;;;20.00;99.90;;;;;;5046575;28;20626;-69
2022/12/13 12:21:14;;;;;;;;;;;20.00;99.90;;;;;;5047631;28;19913;-66
2022/12/13 12:23:46;;;;;;;;;;;20.10;99.90;;;;;;5046385;28;19917;-66
2022/12/13 12:26:15;;;;;;;;;;;20.10;99.90;;;;;;5046975;28;19924;-68
2022/12/13 12:28:52;;;;;;;;;;;20.10;99.90;;;;;;5047459;28;19920;-67
2022/12/13 12:31:21;;;;;;;;;;;20.10;99.90;;;;;;5049476;28;19913;-69
2022/12/13 12:34:12;;;;;;;;;;;20.10;99.90;;;;;;5056022;28;19919;-68
2022/12/13 12:36:48;;;;;;;;;;;20.10;99.90;;;;;;5017107;28;19912;-67
2022/12/13 12:39:33;;;;;;;;;;;20.00;99.90;;;;;;5055933;28;20017;-65
2022/12/13 12:42:03;;;;;;;;;;;20.10;99.90;;;;;;5054986;28;19920;-68
2022/12/13 12:44:44;;;;;;;;;;;20.10;99.90;;;;;;5055801;28;19917;-62
2022/12/13 12:47:20;;;;;;;;;;;20.00;99.90;;;;;;5054148;28;19983;-68
2022/12/13 12:49:50;;;;;;;;;;;20.00;99.90;;;;;;5055743;28;19909;-65
2022/12/13 12:52:20;;;;;;;;;;;20.00;99.90;;;;;;5053658;28;19916;-67
2022/12/13 12:54:46;;;;;;;;;;;20.00;99.90;;;;;;5054877;28;19920;-68
2022/12/13 12:57:48;;;;;;;;;;;19.90;99.90;;;;;;5055412;28;19992;-66
2022/12/13 13:00:22;;;;;;;;;;;20.00;99.90;;;;;;4993104;28;19937;-66
2022/12/13 13:02:52;;;;;;;;;;;19.90;99.90;;;;;;5045033;28;19924;-66
2022/12/13 13:05:29;;;;;;;;;;;20.00;99.90;;;;;;5055344;28;20035;-69
2022/12/13 13:08:04;;;;;;;;;;;19.90;99.90;;;;;;5054477;28;19920;-64
2022/12/13 13:10:31;;;;;;;;;;;19.90;99.90;;;;;;5055297;28;20287;-66
2022/12/13 13:12:57;;;;;;;;;;;19.90;99.90;;;;;;5042880;28;20253;-65
2022/12/13 13:15:33;;;;;;;;;;;19.80;99.90;;;;;;5035092;28;20071;-65
2022/12/13 13:18:00;;;;;;;;;;;19.70;99.90;;;;;;5048872;28;19920;-65
2022/12/13 13:20:28;;;;;;;;;;;19.70;99.90;;;;;;5055138;28;19924;-66
2022/12/13 13:22:55;;;;;;;;;;;19.80;99.90;;;;;;5053096;28;19913;-67
2022/12/13 13:25:29;;;;;;;;;;;19.70;99.90;;;;;;5055486;28;19909;-68
2022/12/13 13:28:06;;;;;;;;;;;19.70;99.90;;;;;;5054766;28;20359;-68
2022/12/13 13:30:33;;;;;;;;;;;19.70;99.90;;;;;;5055793;28;19909;-67
2022/12/13 13:33:00;;;;;;;;;;;19.60;99.90;;;;;;5053085;28;19923;-67
2022/12/13 13:35:35;;;;;;;;;;;19.60;99.90;;;;;;5055171;28;19913;-69
2022/12/13 13:38:03;;;;;;;;;;;19.60;99.90;;;;;;5053957;28;19927;-67
2022/12/13 13:40:34;;;;;;;;;;;19.60;99.90;;;;;;5054944;28;20407;-67
2022/12/13 13:43:00;;;;;;;;;;;19.60;99.90;;;;;;5053746;28;19920;-69
2022/12/13 13:45:27;;;;;;;;;;;19.60;99.90;;;;;;5053632;28;19913;-67
2022/12/13 13:48:03;;;;;;;;;;;19.50;99.90;;;;;;5054580;28;20364;-68
2022/12/13 13:50:47;;;;;;;;;;;19.50;99.90;;;;;;5054056;28;19928;-69
2022/12/13 13:53:20;;;;;;;;;;;19.50;99.90;;;;;;5053743;28;19975;-68
2022/12/13 13:55:55;;;;;;;;;;;19.50;99.90;;;;;;5054503;28;19909;-68
2022/12/13 13:58:28;;;;;;;;;;;19.50;99.90;;;;;;5053491;28;19947;-67
2022/12/13 14:00:57;;;;;;;;;;;19.50;99.90;;;;;;5053341;28;19943;-64
2022/12/13 14:03:42;;;;;;;;;;;19.50;99.90;;;;;;5052854;28;20003;-66
2022/12/13 14:06:27;;;;;;;;;;;19.40;99.90;;;;;;5054326;28;20125;-68
2022/12/13 14:09:06;;;;;;;;;;;19.40;99.90;;;;;;5053329;28;19951;-66
2022/12/13 14:11:41;;;;;;;;;;;19.40;99.90;;;;;;5054206;28;20367;-68
2022/12/13 14:14:26;;;;;;;;;;;19.40;99.90;;;;;;5053373;28;20363;-67
2022/12/13 14:17:10;;;;;;;;;;;19.30;99.90;;;;;;5054144;28;20000;-67
2022/12/13 14:19:43;;;;;;;;;;;19.40;99.90;;;;;;5053978;28;19928;-66
2022/12/13 14:22:20;;;;;;;;;;;19.30;99.90;;;;;;5053143;28;19912;-68
2022/12/13 14:25:04;;;;;;;;;;;19.30;99.90;;;;;;5053892;28;20279;-67
2022/12/13 14:27:37;;;;;;;;;;;19.20;99.90;;;;;;5053125;28;19913;-65
2022/12/13 14:30:04;;;;;;;;;;;19.10;99.90;;;;;;5053185;28;20268;-68
2022/12/13 14:32:35;;;;;;;;;;;19.10;99.90;;;;;;5053663;28;19909;-67
2022/12/13 14:35:02;;;;;;;;;;;18.90;99.90;;;;;;5052680;28;19954;-66
2022/12/13 14:37:34;;;;;;;;;;;18.90;99.90;;;;;;5053907;28;19916;-67